Lammy — PBRE — position and weather

sailwx.info

Track history (hours):
 
Tides and Currents Weather Stations Pressure Air Temp Water Temp Dewpoint Dewpoint Depression Visibility Wind Speed Wind Dir Waves Ship Positions

Lammy

Last reported at 2016-May-26 10:31 UTC. Time now 2016-May-26 10:40 UTC.
Position N 53°42' W 000°22'.

Length 95 m; draft 4.8 m.

Type: Cargo ship. MMSI: 245391000.

Date/timePositionNaut miles runAvg speedWind from/ knotsBaromVisibWave heightAir tempDewpointWater temp
2016-May-26 10:31N 53°42' W 000°22'0 0.0
2016-May-26 09:31N 53°42' W 000°22'0 0.0
2016-May-26 08:31N 53°42' W 000°22'0 0.0
2016-May-26 07:28N 53°42' W 000°22'0 0.0
2016-May-26 06:31N 53°42' W 000°22'0 0.0
2016-May-26 05:31N 53°42' W 000°22'0 0.0
2016-May-26 04:31N 53°42' W 000°22'0 0.0
2016-May-26 03:31N 53°42' W 000°22'0 0.0
2016-May-26 02:31N 53°42' W 000°22'0 0.0
2016-May-26 01:31N 53°42' W 000°22'0 0.0
2016-May-26 00:31N 53°42' W 000°22'0 0.0
2016-May-25 23:28N 53°42' W 000°22'0 0.0
2016-May-25 22:31N 53°42' W 000°22'0 0.0
2016-May-25 21:31N 53°42' W 000°22'0 0.0
2016-May-25 20:33N 53°42' W 000°22'2 2.1
2016-May-25 19:33N 53°43' W 000°19'2 1.9
2016-May-25 18:33N 53°45' W 000°16'0 0.3
2016-May-25 17:33N 53°45' W 000°16'0 0.0
2016-May-25 16:33N 53°45' W 000°16'0 0.0
2016-May-25 15:33N 53°45' W 000°16'0 0.0
2016-May-25 14:33N 53°45' W 000°16'0 0.0
2016-May-25 13:33N 53°45' W 000°16'0 0.0
2016-May-25 12:33N 53°45' W 000°16'0 0.0
2016-May-25 11:33N 53°45' W 000°16'0 0.0
2016-May-25 10:33N 53°45' W 000°16'0 0.0
2016-May-25 09:33N 53°45' W 000°16'0 0.0
2016-May-25 08:33N 53°45' W 000°16'0 0.0
2016-May-25 07:33N 53°45' W 000°16'0 0.0
2016-May-25 06:33N 53°45' W 000°16'0 0.0
2016-May-25 05:33N 53°45' W 000°16'0 0.0
2016-May-25 04:33N 53°45' W 000°16'0 0.0
2016-May-25 03:33N 53°45' W 000°16'0 0.0
2016-May-25 02:33N 53°45' W 000°16'0 0.0
2016-May-25 01:33N 53°45' W 000°16'0 0.0
2016-May-25 00:27N 53°45' W 000°16'0 0.0
2016-May-24 23:33N 53°45' W 000°16'0 0.0
2016-May-24 22:30N 53°45' W 000°16'0 0.0
2016-May-24 21:33N 53°45' W 000°16'0 0.0
2016-May-24 20:33N 53°45' W 000°16'0 0.0
2016-May-24 19:33N 53°45' W 000°16'0 0.0
2016-May-24 18:33N 53°45' W 000°16'0 0.0
2016-May-24 17:33N 53°45' W 000°16'0 0.0
2016-May-24 16:33N 53°45' W 000°16'0 0.0
2016-May-24 15:33N 53°45' W 000°16'0 0.0
2016-May-24 14:30N 53°45' W 000°16'0 0.0
2016-May-24 13:33N 53°45' W 000°16'0 0.0
2016-May-24 12:33N 53°45' W 000°16'0 0.0
2016-May-24 11:33N 53°45' W 000°16'0 0.0
2016-May-24 10:33N 53°45' W 000°16'0 0.0
2016-May-24 09:30N 53°45' W 000°16'0 0.0
2016-May-24 08:33N 53°45' W 000°16'0 0.0
2016-May-24 07:33N 53°45' W 000°16'0 0.0
2016-May-24 06:30N 53°45' W 000°16'0 0.0
2016-May-24 05:33N 53°45' W 000°16'0 0.5
2016-May-24 04:33N 53°44' W 000°16'6 5.9
2016-May-24 03:33N 53°39' W 000°12'1111.5
2016-May-24 02:34N 53°34' E 000°05'8 7.9
2016-May-24 01:33N 53°36' E 000°19'9 8.1
2016-May-24 00:23N 53°42' E 000°30'7 8.4
2016-May-23 23:30N 53°47' E 000°40'40210.2
2016-May-22 08:15N 57°43' E 010°18'7 9.8
2016-May-22 07:32N 57°46' E 010°30'9 9.5
2016-May-22 06:34N 57°46' E 010°47'1110.4
2016-May-22 05:33N 57°40' E 011°03'1110.9
2016-May-22 04:33N 57°32' E 011°18'1010.5
2016-May-22 03:33N 57°24' E 011°29'2411.1
2016-May-22 01:25N 57°02' E 011°46'911.1
2016-May-22 00:34N 56°53' E 011°54'1110.6
2016-May-21 23:33N 56°44' E 012°03'3210.6
2016-May-21 20:33N 56°15' E 012°26'1211.6
2016-May-21 19:34N 56°05' E 012°37'1111.3
2016-May-21 18:34N 55°55' E 012°44'1111.1
2016-May-21 17:33N 55°44' E 012°41'1110.8
2016-May-21 16:33N 55°33' E 012°43'1110.8
2016-May-21 15:33N 55°22' E 012°42'10 9.5
2016-May-21 14:33N 55°16' E 012°54'1111.0
2016-May-21 13:33N 55°15' E 013°14'1110.9
2016-May-21 12:33N 55°15' E 013°33'1111.2
2016-May-21 11:33N 55°14' E 013°52'1111.2
2016-May-21 10:33N 55°14' E 014°12'1010.4
2016-May-21 09:34N 55°21' E 014°25'1110.8
2016-May-21 08:33N 55°27' E 014°41'1111.3
2016-May-21 07:33N 55°33' E 014°59'1211.3
2016-May-21 06:31N 55°39' E 015°16'1511.5
2016-May-21 05:13N 55°47' E 015°39'  
Track history (hours):
 
Tides and Currents Weather Stations Pressure Air Temp Water Temp Dewpoint Dewpoint Depression Visibility Wind Speed Wind Dir Waves Ship Positions

Lammy

Last reported at 2016-May-26 10:31 UTC. Time now 2016-May-26 10:40 UTC.
Position N 53°42' W 000°22'.

Length 95 m; draft 4.8 m.

Type: Cargo ship. MMSI: 245391000.

Date/timePositionNaut miles runAvg speedWind from/ knotsBaromVisibWave heightAir tempDewpointWater temp
2016-May-26 10:31N 53°42' W 000°22'0 0.0
2016-May-26 09:31N 53°42' W 000°22'0 0.0
2016-May-26 08:31N 53°42' W 000°22'0 0.0
2016-May-26 07:28N 53°42' W 000°22'0 0.0
2016-May-26 06:31N 53°42' W 000°22'0 0.0
2016-May-26 05:31N 53°42' W 000°22'0 0.0
2016-May-26 04:31N 53°42' W 000°22'0 0.0
2016-May-26 03:31N 53°42' W 000°22'0 0.0
2016-May-26 02:31N 53°42' W 000°22'0 0.0
2016-May-26 01:31N 53°42' W 000°22'0 0.0
2016-May-26 00:31N 53°42' W 000°22'0 0.0
2016-May-25 23:28N 53°42' W 000°22'0 0.0
2016-May-25 22:31N 53°42' W 000°22'0 0.0
2016-May-25 21:31N 53°42' W 000°22'0 0.0
2016-May-25 20:33N 53°42' W 000°22'2 2.1
2016-May-25 19:33N 53°43' W 000°19'2 1.9
2016-May-25 18:33N 53°45' W 000°16'0 0.3
2016-May-25 17:33N 53°45' W 000°16'0 0.0
2016-May-25 16:33N 53°45' W 000°16'0 0.0
2016-May-25 15:33N 53°45' W 000°16'0 0.0
2016-May-25 14:33N 53°45' W 000°16'0 0.0
2016-May-25 13:33N 53°45' W 000°16'0 0.0
2016-May-25 12:33N 53°45' W 000°16'0 0.0
2016-May-25 11:33N 53°45' W 000°16'0 0.0
2016-May-25 10:33N 53°45' W 000°16'0 0.0
2016-May-25 09:33N 53°45' W 000°16'0 0.0
2016-May-25 08:33N 53°45' W 000°16'0 0.0
2016-May-25 07:33N 53°45' W 000°16'0 0.0
2016-May-25 06:33N 53°45' W 000°16'0 0.0
2016-May-25 05:33N 53°45' W 000°16'0 0.0
2016-May-25 04:33N 53°45' W 000°16'0 0.0
2016-May-25 03:33N 53°45' W 000°16'0 0.0
2016-May-25 02:33N 53°45' W 000°16'0 0.0
2016-May-25 01:33N 53°45' W 000°16'0 0.0
2016-May-25 00:27N 53°45' W 000°16'0 0.0
2016-May-24 23:33N 53°45' W 000°16'0 0.0
2016-May-24 22:30N 53°45' W 000°16'0 0.0
2016-May-24 21:33N 53°45' W 000°16'0 0.0
2016-May-24 20:33N 53°45' W 000°16'0 0.0
2016-May-24 19:33N 53°45' W 000°16'0 0.0
2016-May-24 18:33N 53°45' W 000°16'0 0.0
2016-May-24 17:33N 53°45' W 000°16'0 0.0
2016-May-24 16:33N 53°45' W 000°16'0 0.0
2016-May-24 15:33N 53°45' W 000°16'0 0.0
2016-May-24 14:30N 53°45' W 000°16'0 0.0
2016-May-24 13:33N 53°45' W 000°16'0 0.0
2016-May-24 12:33N 53°45' W 000°16'0 0.0
2016-May-24 11:33N 53°45' W 000°16'0 0.0
2016-May-24 10:33N 53°45' W 000°16'0 0.0
2016-May-24 09:30N 53°45' W 000°16'0 0.0
2016-May-24 08:33N 53°45' W 000°16'0 0.0
2016-May-24 07:33N 53°45' W 000°16'0 0.0
2016-May-24 06:30N 53°45' W 000°16'0 0.0
2016-May-24 05:33N 53°45' W 000°16'0 0.5
2016-May-24 04:33N 53°44' W 000°16'6 5.9
2016-May-24 03:33N 53°39' W 000°12'1111.5
2016-May-24 02:34N 53°34' E 000°05'8 7.9
2016-May-24 01:33N 53°36' E 000°19'9 8.1
2016-May-24 00:23N 53°42' E 000°30'7 8.4
2016-May-23 23:30N 53°47' E 000°40'40210.2
2016-May-22 08:15N 57°43' E 010°18'7 9.8
2016-May-22 07:32N 57°46' E 010°30'9 9.5
2016-May-22 06:34N 57°46' E 010°47'1110.4
2016-May-22 05:33N 57°40' E 011°03'1110.9
2016-May-22 04:33N 57°32' E 011°18'1010.5
2016-May-22 03:33N 57°24' E 011°29'2411.1
2016-May-22 01:25N 57°02' E 011°46'911.1
2016-May-22 00:34N 56°53' E 011°54'1110.6
2016-May-21 23:33N 56°44' E 012°03'3210.6
2016-May-21 20:33N 56°15' E 012°26'1211.6
2016-May-21 19:34N 56°05' E 012°37'1111.3
2016-May-21 18:34N 55°55' E 012°44'1111.1
2016-May-21 17:33N 55°44' E 012°41'1110.8
2016-May-21 16:33N 55°33' E 012°43'1110.8
2016-May-21 15:33N 55°22' E 012°42'10 9.5
2016-May-21 14:33N 55°16' E 012°54'1111.0
2016-May-21 13:33N 55°15' E 013°14'1110.9
2016-May-21 12:33N 55°15' E 013°33'1111.2
2016-May-21 11:33N 55°14' E 013°52'1111.2
2016-May-21 10:33N 55°14' E 014°12'1010.4
2016-May-21 09:34N 55°21' E 014°25'1110.8
2016-May-21 08:33N 55°27' E 014°41'1111.3
2016-May-21 07:33N 55°33' E 014°59'1211.3
2016-May-21 06:31N 55°39' E 015°16'1511.5
2016-May-21 05:13N 55°47' E 015°39'  

Dump ship's entire track history